Time;durP1;ratioP1;P1;durP2;ratioP2;P2;SDS_P1;SDS_P2;PMS_P1;PMS_P2;Temp;Humidity;BMP_temperature;BMP_pressure;BME280_temperature;BME280_humidity;BME280_pressure;Samples;Min_cycle;Max_cycle;Signal;HPM_P1;HPM_P2
2021/01/04 00:04:12;;;;;;;33.13;24.02;;;;;;;;;;10457903;27;20073;-61
2021/01/04 00:09:22;;;;;;;57.83;31.98;;;;;;;;;;10458145;27;20054;-60
2021/01/04 00:14:41;;;;;;;46.53;30.38;;;;;;;;;;10459697;27;20538;-61
2021/01/04 00:19:41;;;;;;;62.75;32.40;;;;;;;;;;10459954;27;20039;-61
2021/01/04 00:24:42;;;;;;;71.55;28.45;;;;;;;;;;10460301;27;20081;-61
2021/01/04 00:29:41;;;;;;;110.65;24.25;;;;;;;;;;10461506;27;20078;-61
2021/01/04 00:34:40;;;;;;;87.65;33.85;;;;;;;;;;10461075;27;20034;-61
2021/01/04 00:39:42;;;;;;;46.10;29.67;;;;;;;;;;10460658;27;20078;-62
2021/01/04 00:44:44;;;;;;;53.65;26.50;;;;;;;;;;10460848;27;20097;-61
2021/01/04 00:49:43;;;;;;;62.53;25.80;;;;;;;;;;10455780;27;20061;-62
2021/01/04 00:54:48;;;;;;;55.33;27.00;;;;;;;;;;10460578;27;20043;-62
2021/01/04 00:59:54;;;;;;;56.47;20.15;;;;;;;;;;10456925;27;20043;-61
2021/01/04 01:04:58;;;;;;;61.75;18.40;;;;;;;;;;10457401;27;20481;-62
2021/01/04 01:09:55;;;;;;;84.57;19.53;;;;;;;;;;10460675;27;20058;-61
2021/01/04 01:15:04;;;;;;;40.00;18.52;;;;;;;;;;10459421;27;20124;-60
2021/01/04 01:20:02;;;;;;;55.72;19.50;;;;;;;;;;10460151;27;20038;-61
2021/01/04 01:25:02;;;;;;;69.47;18.10;;;;;;;;;;10466156;27;20081;-61
2021/01/04 01:30:10;;;;;;;43.83;17.35;;;;;;;;;;10467821;27;20073;-61
2021/01/04 01:35:18;;;;;;;56.22;16.77;;;;;;;;;;10468514;27;20424;-61
2021/01/04 01:40:42;;;;;;;126.20;19.27;;;;;;;;;;10463118;27;20075;-60
2021/01/04 01:45:44;;;;;;;86.78;18.67;;;;;;;;;;10466822;27;20035;-61
2021/01/04 01:50:45;;;;;;;52.55;15.50;;;;;;;;;;10465747;27;20059;-61
2021/01/04 01:55:46;;;;;;;38.42;15.88;;;;;;;;;;10462491;27;20049;-61
2021/01/04 02:00:46;;;;;;;38.03;15.30;;;;;;;;;;10466394;27;20082;-61
2021/01/04 02:05:57;;;;;;;30.98;15.38;;;;;;;;;;10464653;27;20041;-61
2021/01/04 02:10:58;;;;;;;36.90;11.70;;;;;;;;;;10463513;27;20062;-61
2021/01/04 02:15:57;;;;;;;23.02;12.60;;;;;;;;;;10465556;27;20050;-61
2021/01/04 02:21:06;;;;;;;44.47;12.73;;;;;;;;;;10465395;27;20071;-61
2021/01/04 02:26:07;;;;;;;50.30;12.10;;;;;;;;;;10463478;27;20078;-60
2021/01/04 02:31:04;;;;;;;47.55;10.48;;;;;;;;;;10464811;27;20046;-61
2021/01/04 02:36:02;;;;;;;55.38;13.73;;;;;;;;;;10463744;27;20062;-60
2021/01/04 02:41:00;;;;;;;48.70;13.45;;;;;;;;;;10464750;27;20152;-60
2021/01/04 02:46:02;;;;;;;52.75;12.60;;;;;;;;;;10464106;27;20046;-60
2021/01/04 02:51:03;;;;;;;43.03;10.65;;;;;;;;;;10464448;27;20047;-61
2021/01/04 02:56:04;;;;;;;59.95;11.95;;;;;;;;;;10463399;27;20077;-62
2021/01/04 03:01:08;;;;;;;58.97;11.10;;;;;;;;;;10459891;27;20074;-62
2021/01/04 03:06:08;;;;;;;58.53;10.13;;;;;;;;;;10460341;27;20034;-62
2021/01/04 03:11:06;;;;;;;45.53;9.63;;;;;;;;;;10460418;27;20035;-63
2021/01/04 03:16:07;;;;;;;74.38;11.82;;;;;;;;;;10463716;27;20051;-61
2021/01/04 03:21:06;;;;;;;66.00;14.50;;;;;;;;;;10462822;27;20100;-62
2021/01/04 03:26:06;;;;;;;51.95;9.73;;;;;;;;;;10463059;27;20071;-62
2021/01/04 03:31:05;;;;;;;42.67;12.43;;;;;;;;;;10461561;27;20396;-62
2021/01/04 03:36:02;;;;;;;28.65;13.30;;;;;;;;;;10463189;27;20428;-62
2021/01/04 03:41:01;;;;;;;20.83;12.15;;;;;;;;;;10465053;27;20078;-63
2021/01/04 03:45:58;;;;;;;15.18;11.07;;;;;;;;;;10481088;27;20038;-62
2021/01/04 03:50:56;;;;;;;22.10;9.77;;;;;;;;;;10483591;27;20042;-61
2021/01/04 03:55:53;;;;;;;11.45;9.60;;;;;;;;;;10482581;27;20434;-62
2021/01/04 04:00:51;;;;;;;11.63;10.07;;;;;;;;;;10483156;27;20042;-61
2021/01/04 04:05:49;;;;;;;12.77;9.63;;;;;;;;;;10479851;27;20435;-61
2021/01/04 04:10:46;;;;;;;20.83;16.27;;;;;;;;;;10482962;27;20047;-62
2021/01/04 04:15:43;;;;;;;24.45;16.33;;;;;;;;;;10481599;27;20074;-63
2021/01/04 04:20:42;;;;;;;31.38;20.17;;;;;;;;;;10481583;27;20035;-61
2021/01/04 04:25:39;;;;;;;15.15;12.70;;;;;;;;;;10482382;27;20490;-62
2021/01/04 04:30:36;;;;;;;76.28;61.15;;;;;;;;;;10481171;27;20543;-61
2021/01/04 04:35:34;;;;;;;65.57;37.20;;;;;;;;;;10480143;27;20041;-62
2021/01/04 04:40:33;;;;;;;78.28;29.13;;;;;;;;;;10479564;27;20539;-61
2021/01/04 04:45:31;;;;;;;29.73;15.82;;;;;;;;;;10479065;27;20480;-62
2021/01/04 04:50:43;;;;;;;67.32;13.60;;;;;;;;;;10479598;27;20074;-62
2021/01/04 04:55:50;;;;;;;33.03;19.92;;;;;;;;;;10478456;27;20046;-62
2021/01/04 05:00:57;;;;;;;31.70;16.98;;;;;;;;;;10487958;27;20055;-62
2021/01/04 05:05:59;;;;;;;40.40;15.90;;;;;;;;;;10486730;27;20039;-61
2021/01/04 05:11:00;;;;;;;53.92;17.10;;;;;;;;;;10489366;27;20050;-61
2021/01/04 05:16:01;;;;;;;113.03;17.15;;;;;;;;;;10489723;27;20062;-60
2021/01/04 05:21:15;;;;;;;125.00;46.20;;;;;;;;;;10488845;27;20045;-61
2021/01/04 05:26:24;;;;;;;71.82;15.73;;;;;;;;;;10485807;27;20073;-61
2021/01/04 05:31:37;;;;;;;89.38;15.05;;;;;;;;;;10488082;27;20066;-62
2021/01/04 05:36:52;;;;;;;37.38;13.98;;;;;;;;;;10486319;27;20053;-62
2021/01/04 05:41:58;;;;;;;40.83;12.93;;;;;;;;;;10470706;27;20471;-62
2021/01/04 05:47:00;;;;;;;153.85;16.98;;;;;;;;;;10485556;27;20062;-62
2021/01/04 05:51:57;;;;;;;114.78;18.85;;;;;;;;;;10484538;27;20066;-62
2021/01/04 05:57:04;;;;;;;55.15;16.67;;;;;;;;;;10482648;27;20062;-62
2021/01/04 06:02:02;;;;;;;83.05;24.85;;;;;;;;;;10483214;27;20070;-62
2021/01/04 06:07:01;;;;;;;71.00;28.60;;;;;;;;;;10484392;27;20563;-62
2021/01/04 06:12:04;;;;;;;61.15;22.48;;;;;;;;;;10485111;27;20071;-63
2021/01/04 06:17:03;;;;;;;39.20;19.67;;;;;;;;;;10486020;27;20038;-62
2021/01/04 06:22:07;;;;;;;69.88;37.90;;;;;;;;;;10485355;27;20093;-62
2021/01/04 06:27:09;;;;;;;49.95;29.90;;;;;;;;;;10485511;27;20039;-61
2021/01/04 06:32:13;;;;;;;73.60;32.22;;;;;;;;;;10482307;27;20550;-62
2021/01/04 06:37:12;;;;;;;74.82;46.53;;;;;;;;;;10483686;27;20070;-62
2021/01/04 06:42:11;;;;;;;104.70;36.33;;;;;;;;;;10473640;27;20081;-62
2021/01/04 06:47:32;;;;;;;96.75;42.78;;;;;;;;;;10459800;27;20078;-63
2021/01/04 06:52:51;;;;;;;62.95;33.72;;;;;;;;;;10442480;27;20082;-61
2021/01/04 06:58:15;;;;;;;65.25;37.38;;;;;;;;;;10460488;27;20546;-64
2021/01/04 07:03:31;;;;;;;41.92;26.05;;;;;;;;;;10461196;27;20066;-63
2021/01/04 07:08:54;;;;;;;49.53;23.80;;;;;;;;;;10460223;27;20498;-63
2021/01/04 07:14:03;;;;;;;59.05;34.45;;;;;;;;;;10460329;27;20043;-62
2021/01/04 07:19:05;;;;;;;41.10;31.13;;;;;;;;;;10460882;27;20043;-62
2021/01/04 07:24:10;;;;;;;23.83;18.00;;;;;;;;;;10461708;27;20074;-62
2021/01/04 07:29:18;;;;;;;52.15;30.80;;;;;;;;;;10459472;27;20034;-63
2021/01/04 07:34:18;;;;;;;60.53;32.28;;;;;;;;;;10461229;27;20042;-62
2021/01/04 07:39:23;;;;;;;35.38;23.85;;;;;;;;;;10462315;27;20099;-61
2021/01/04 07:44:20;;;;;;;;;;;;;;;;;;10462396;27;20074;-62
2021/01/04 07:49:41;;;;;;;24.50;18.00;;;;;;;;;;10461086;27;19957;-62
2021/01/04 07:55:01;;;;;;;32.08;13.27;;;;;;;;;;10426455;27;20066;-62
2021/01/04 08:00:21;;;;;;;61.78;14.68;;;;;;;;;;10460364;27;20062;-62
2021/01/04 08:05:31;;;;;;;27.45;14.10;;;;;;;;;;10459298;27;20046;-62
2021/01/04 08:10:44;;;;;;;70.28;19.10;;;;;;;;;;10460931;27;20069;-62
2021/01/04 08:15:43;;;;;;;24.20;15.23;;;;;;;;;;10413601;27;20082;-62
2021/01/04 08:20:45;;;;;;;21.65;14.55;;;;;;;;;;10460749;27;20081;-63
2021/01/04 08:25:49;;;;;;;15.90;12.45;;;;;;;;;;10461967;27;20066;-62
2021/01/04 08:30:54;;;;;;;22.65;19.55;;;;;;;;;;10456160;27;20479;-62
2021/01/04 08:35:52;;;;;;;26.15;16.27;;;;;;;;;;10457824;27;20453;-62
2021/01/04 08:40:51;;;;;;;30.30;18.05;;;;;;;;;;10463278;27;20086;-61
2021/01/04 08:45:48;;;;;;;37.65;19.33;;;;;;;;;;10479614;27;20077;-63
2021/01/04 08:50:59;;;;;;;31.27;16.75;;;;;;;;;;10478343;27;20066;-62
2021/01/04 08:56:04;;;;;;;44.22;22.48;;;;;;;;;;10480511;27;20039;-61
2021/01/04 09:01:07;;;;;;;64.90;39.08;;;;;;;;;;10480621;27;20050;-62
2021/01/04 09:06:13;;;;;;;44.17;18.58;;;;;;;;;;10480557;27;20093;-62
2021/01/04 09:11:11;;;;;;;28.45;19.40;;;;;;;;;;10478926;27;20086;-62
2021/01/04 09:16:10;;;;;;;38.50;25.52;;;;;;;;;;10480775;27;20050;-63
2021/01/04 09:21:18;;;;;;;23.45;17.27;;;;;;;;;;10478401;27;20046;-62
2021/01/04 09:26:26;;;;;;;26.08;16.88;;;;;;;;;;10479581;27;20062;-62
2021/01/04 09:31:23;;;;;;;44.78;16.75;;;;;;;;;;10481456;27;20046;-63
2021/01/04 09:36:23;;;;;;;29.33;17.48;;;;;;;;;;10480131;27;20074;-63
2021/01/04 09:41:21;;;;;;;61.85;26.45;;;;;;;;;;10475198;27;20082;-62
2021/01/04 09:46:21;;;;;;;77.70;24.80;;;;;;;;;;10464822;27;20066;-61
2021/01/04 09:51:29;;;;;;;32.72;19.63;;;;;;;;;;10466692;27;20042;-63
2021/01/04 09:56:29;;;;;;;32.15;21.98;;;;;;;;;;10468270;27;20494;-63
2021/01/04 10:01:26;;;;;;;52.67;25.40;;;;;;;;;;10465372;27;20408;-62
2021/01/04 10:06:24;;;;;;;61.55;43.58;;;;;;;;;;10465529;27;20066;-61
2021/01/04 10:11:23;;;;;;;62.80;44.03;;;;;;;;;;10466118;27;20066;-63
2021/01/04 10:16:24;;;;;;;31.90;25.83;;;;;;;;;;10465151;27;20042;-62
2021/01/04 10:21:23;;;;;;;33.63;28.02;;;;;;;;;;10465498;27;20506;-62
2021/01/04 10:26:21;;;;;;;32.90;26.40;;;;;;;;;;10464967;27;20066;-61
2021/01/04 10:31:21;;;;;;;34.63;29.17;;;;;;;;;;10465823;27;20514;-62
2021/01/04 10:36:21;;;;;;;55.20;41.75;;;;;;;;;;10465631;27;20073;-61
2021/01/04 10:41:18;;;;;;;40.28;35.72;;;;;;;;;;10469704;27;20057;-61
2021/01/04 10:46:21;;;;;;;34.05;25.40;;;;;;;;;;10486169;27;20070;-62
2021/01/04 10:51:20;;;;;;;93.55;72.43;;;;;;;;;;10485051;27;20042;-62
2021/01/04 10:56:38;;;;;;;113.65;102.57;;;;;;;;;;10484923;27;20062;-61
2021/01/04 11:01:38;;;;;;;51.45;46.55;;;;;;;;;;10483618;27;20507;-61
2021/01/04 11:06:37;;;;;;;84.10;76.03;;;;;;;;;;10485113;27;20058;-61
2021/01/04 11:11:37;;;;;;;72.03;58.70;;;;;;;;;;10483097;27;20066;-62
2021/01/04 11:16:41;;;;;;;45.92;36.38;;;;;;;;;;10485190;27;20039;-62
2021/01/04 11:21:43;;;;;;;89.75;63.05;;;;;;;;;;10484638;27;20038;-62
2021/01/04 11:26:42;;;;;;;205.02;102.57;;;;;;;;;;10483916;27;20194;-62
2021/01/04 11:31:39;;;;;;;174.05;89.55;;;;;;;;;;10484266;27;20066;-62
2021/01/04 11:36:39;;;;;;;89.05;48.97;;;;;;;;;;10483285;27;20115;-63
2021/01/04 11:41:38;;;;;;;60.00;37.63;;;;;;;;;;10477384;27;20082;-62
2021/01/04 11:46:36;;;;;;;64.75;38.20;;;;;;;;;;10463028;27;20058;-62
2021/01/04 11:51:33;;;;;;;60.65;36.72;;;;;;;;;;10462105;27;20035;-61
2021/01/04 11:56:31;;;;;;;37.50;28.52;;;;;;;;;;10461390;27;20035;-62
2021/01/04 12:01:29;;;;;;;50.47;29.77;;;;;;;;;;10457674;27;20436;-62
2021/01/04 12:06:26;;;;;;;28.50;21.25;;;;;;;;;;10455807;27;20079;-61
2021/01/04 12:11:24;;;;;;;37.97;25.73;;;;;;;;;;10462001;27;20066;-61
2021/01/04 12:16:21;;;;;;;63.95;38.13;;;;;;;;;;10458896;27;20101;-61
2021/01/04 12:21:23;;;;;;;45.53;30.30;;;;;;;;;;10460918;27;20035;-61
2021/01/04 12:26:22;;;;;;;46.70;31.25;;;;;;;;;;10460589;27;20073;-61
2021/01/04 12:31:19;;;;;;;46.15;27.50;;;;;;;;;;10459608;27;20543;-61
2021/01/04 12:36:19;;;;;;;51.50;31.52;;;;;;;;;;10460555;27;20073;-61
2021/01/04 12:41:18;;;;;;;55.95;32.78;;;;;;;;;;10465142;27;20475;-61
2021/01/04 12:46:16;;;;;;;58.55;38.85;;;;;;;;;;10480399;27;20077;-62
2021/01/04 12:51:14;;;;;;;77.07;53.38;;;;;;;;;;10482024;27;20066;-62
2021/01/04 12:56:16;;;;;;;52.03;34.15;;;;;;;;;;10481057;27;20074;-62
2021/01/04 13:01:16;;;;;;;51.45;32.20;;;;;;;;;;10478180;27;20408;-62
2021/01/04 13:06:21;;;;;;;67.03;39.53;;;;;;;;;;10481660;27;20074;-62
2021/01/04 13:11:18;;;;;;;58.78;33.60;;;;;;;;;;10481869;27;20035;-62
2021/01/04 13:16:19;;;;;;;55.25;35.03;;;;;;;;;;10481539;27;20542;-62
2021/01/04 13:21:17;;;;;;;50.08;27.48;;;;;;;;;;10487504;27;20054;-63
2021/01/04 13:26:15;;;;;;;42.20;22.83;;;;;;;;;;10487903;27;20069;-62
2021/01/04 13:31:12;;;;;;;30.95;16.42;;;;;;;;;;10488217;27;20043;-62
2021/01/04 13:36:11;;;;;;;28.00;16.08;;;;;;;;;;10487131;27;20128;-62
2021/01/04 13:41:08;;;;;;;32.35;19.35;;;;;;;;;;10485263;27;20046;-61
2021/01/04 13:46:05;;;;;;;27.65;16.10;;;;;;;;;;10485493;27;20043;-62
2021/01/04 13:51:03;;;;;;;25.73;16.25;;;;;;;;;;10488171;27;20066;-61
2021/01/04 13:56:01;;;;;;;32.47;19.95;;;;;;;;;;10487417;27;20081;-62
2021/01/04 14:00:59;;;;;;;32.80;20.17;;;;;;;;;;10486954;27;20455;-62
2021/01/04 14:05:56;;;;;;;31.65;20.42;;;;;;;;;;10486591;27;20084;-62
2021/01/04 14:10:54;;;;;;;29.60;18.80;;;;;;;;;;10487600;27;20035;-62
2021/01/04 14:15:52;;;;;;;34.38;23.85;;;;;;;;;;10486440;27;20147;-62
2021/01/04 14:20:50;;;;;;;22.08;14.43;;;;;;;;;;10484169;27;20039;-61
2021/01/04 14:25:47;;;;;;;34.38;19.65;;;;;;;;;;10486525;27;20499;-61
2021/01/04 14:30:46;;;;;;;22.90;14.63;;;;;;;;;;10485897;27;20035;-62
2021/01/04 14:35:47;;;;;;;29.35;16.20;;;;;;;;;;10486144;27;20062;-62
2021/01/04 14:40:45;;;;;;;32.08;17.08;;;;;;;;;;10484353;27;20066;-61
2021/01/04 14:45:42;;;;;;;34.53;22.60;;;;;;;;;;10464214;27;20482;-62
2021/01/04 14:50:39;;;;;;;35.58;23.40;;;;;;;;;;10465003;27;20495;-62
2021/01/04 14:55:37;;;;;;;28.38;19.70;;;;;;;;;;10463624;27;20046;-62
2021/01/04 15:00:35;;;;;;;48.25;26.45;;;;;;;;;;10464088;27;20054;-62
2021/01/04 15:05:33;;;;;;;46.15;28.95;;;;;;;;;;10462555;27;20071;-62
2021/01/04 15:10:32;;;;;;;43.75;28.73;;;;;;;;;;10445586;27;20054;-62
2021/01/04 15:15:30;;;;;;;35.35;22.88;;;;;;;;;;10462463;27;20479;-62
2021/01/04 15:20:27;;;;;;;35.28;21.55;;;;;;;;;;10460097;27;20061;-62
2021/01/04 15:25:30;;;;;;;55.50;37.85;;;;;;;;;;10459553;27;20099;-62
2021/01/04 15:30:27;;;;;;;53.38;31.80;;;;;;;;;;10459755;27;20034;-62
2021/01/04 15:35:25;;;;;;;49.40;28.55;;;;;;;;;;10463532;27;20039;-62
2021/01/04 15:40:23;;;;;;;41.10;26.05;;;;;;;;;;10461611;27;20039;-62
2021/01/04 15:45:20;;;;;;;37.22;22.90;;;;;;;;;;10483345;27;20066;-62
2021/01/04 15:50:18;;;;;;;31.63;20.33;;;;;;;;;;10463583;27;20042;-62
2021/01/04 15:55:16;;;;;;;31.15;21.67;;;;;;;;;;10483006;27;20034;-62
2021/01/04 16:00:15;;;;;;;32.90;22.50;;;;;;;;;;10482886;27;20070;-62
2021/01/04 16:05:13;;;;;;;33.78;20.88;;;;;;;;;;10480146;27;20070;-61
2021/01/04 16:10:11;;;;;;;36.17;24.05;;;;;;;;;;10466760;27;20073;-62
2021/01/04 16:15:17;;;;;;;64.90;40.25;;;;;;;;;;10474233;27;20066;-63
2021/01/04 16:20:19;;;;;;;44.60;31.83;;;;;;;;;;10476045;27;20066;-62
2021/01/04 16:25:17;;;;;;;38.15;26.95;;;;;;;;;;10462899;27;20121;-63
2021/01/04 16:30:29;;;;;;;38.53;25.60;;;;;;;;;;10473187;27;20074;-61
2021/01/04 16:35:27;;;;;;;38.33;27.77;;;;;;;;;;10464641;27;20542;-63
2021/01/04 16:40:28;;;;;;;25.58;15.75;;;;;;;;;;10474190;27;20460;-63
2021/01/04 16:45:25;;;;;;;25.13;13.38;;;;;;;;;;10478848;27;20066;-62
2021/01/04 16:50:23;;;;;;;22.83;12.27;;;;;;;;;;10471417;27;20073;-62
2021/01/04 16:55:21;;;;;;;24.92;14.23;;;;;;;;;;10469445;27;20077;-61
2021/01/04 17:00:18;;;;;;;24.88;13.48;;;;;;;;;;10484187;27;20066;-63
2021/01/04 17:05:16;;;;;;;22.15;15.45;;;;;;;;;;10489140;27;20089;-61
2021/01/04 17:10:15;;;;;;;22.25;13.27;;;;;;;;;;10469519;27;20043;-62
2021/01/04 17:15:13;;;;;;;26.27;11.55;;;;;;;;;;10489009;27;20039;-61
2021/01/04 17:20:11;;;;;;;26.70;16.70;;;;;;;;;;10489084;27;20487;-62
2021/01/04 17:25:09;;;;;;;26.05;12.52;;;;;;;;;;10485634;27;20077;-62
2021/01/04 17:30:07;;;;;;;28.17;14.27;;;;;;;;;;10483513;27;20082;-62
2021/01/04 17:35:05;;;;;;;32.20;19.13;;;;;;;;;;10471275;27;20039;-63
2021/01/04 17:40:04;;;;;;;24.60;15.55;;;;;;;;;;10487002;27;20073;-63
2021/01/04 17:45:01;;;;;;;31.88;17.88;;;;;;;;;;10487006;27;20499;-62
2021/01/04 17:49:59;;;;;;;30.92;15.02;;;;;;;;;;10487062;27;20039;-62
2021/01/04 17:54:56;;;;;;;25.65;15.88;;;;;;;;;;10486687;27;20073;-62
2021/01/04 17:59:54;;;;;;;36.38;18.08;;;;;;;;;;10467552;27;20043;-63
2021/01/04 18:04:51;;;;;;;27.35;18.52;;;;;;;;;;10485897;27;20078;-62
2021/01/04 18:09:49;;;;;;;34.55;15.80;;;;;;;;;;10486036;27;20507;-60
2021/01/04 18:14:47;;;;;;;38.33;20.38;;;;;;;;;;10482439;27;20061;-61
2021/01/04 18:19:44;;;;;;;32.53;16.83;;;;;;;;;;10485596;27;20071;-62
2021/01/04 18:24:41;;;;;;;25.10;15.05;;;;;;;;;;10483285;27;20074;-62
2021/01/04 18:29:40;;;;;;;31.15;16.13;;;;;;;;;;10468186;27;20063;-62
2021/01/04 18:34:38;;;;;;;27.65;15.55;;;;;;;;;;10469693;27;20070;-63
2021/01/04 18:39:35;;;;;;;27.08;15.20;;;;;;;;;;10466271;27;20077;-61
2021/01/04 18:44:32;;;;;;;28.60;14.68;;;;;;;;;;10481349;27;20483;-63
2021/01/04 18:49:30;;;;;;;28.77;14.43;;;;;;;;;;10446161;27;20092;-62
2021/01/04 18:54:31;;;;;;;33.85;19.08;;;;;;;;;;10480748;27;20503;-63
2021/01/04 18:59:29;;;;;;;42.13;23.88;;;;;;;;;;10483519;27;20034;-63
2021/01/04 19:04:27;;;;;;;36.55;21.73;;;;;;;;;;10480563;27;20067;-62
2021/01/04 19:09:29;;;;;;;39.92;21.48;;;;;;;;;;10478355;27;20416;-62
2021/01/04 19:14:29;;;;;;;32.25;19.08;;;;;;;;;;10478928;27;20074;-62
2021/01/04 19:19:26;;;;;;;39.40;21.48;;;;;;;;;;10475603;27;20448;-62
2021/01/04 19:24:24;;;;;;;31.45;16.70;;;;;;;;;;10468104;27;20074;-62
2021/01/04 19:29:22;;;;;;;35.63;20.05;;;;;;;;;;10482604;27;20067;-62
2021/01/04 19:34:19;;;;;;;31.75;16.50;;;;;;;;;;10483336;27;20475;-62
2021/01/04 19:39:20;;;;;;;36.88;20.63;;;;;;;;;;10482902;27;20508;-62
2021/01/04 19:44:19;;;;;;;35.00;18.20;;;;;;;;;;10466508;27;20075;-62
2021/01/04 19:49:17;;;;;;;32.00;18.80;;;;;;;;;;10461876;27;20487;-62
2021/01/04 19:54:15;;;;;;;31.88;16.98;;;;;;;;;;10441826;27;20035;-63
2021/01/04 19:59:14;;;;;;;34.08;18.70;;;;;;;;;;10461393;27;20053;-62
2021/01/04 20:04:12;;;;;;;27.70;15.80;;;;;;;;;;10460329;27;20089;-62
2021/01/04 20:09:11;;;;;;;31.33;16.50;;;;;;;;;;10461408;27;20035;-61
2021/01/04 20:14:10;;;;;;;25.63;16.02;;;;;;;;;;10458018;27;20039;-62
2021/01/04 20:19:11;;;;;;;31.27;18.05;;;;;;;;;;10439118;27;20046;-61
2021/01/04 20:24:10;;;;;;;42.10;19.17;;;;;;;;;;10469026;27;20070;-62
2021/01/04 20:29:09;;;;;;;33.65;20.98;;;;;;;;;;10481342;27;20066;-62
2021/01/04 20:34:07;;;;;;;35.45;18.48;;;;;;;;;;10481591;27;20051;-62
2021/01/04 20:39:05;;;;;;;31.05;20.95;;;;;;;;;;10481105;27;20051;-62
2021/01/04 20:44:03;;;;;;;25.65;15.98;;;;;;;;;;10481082;27;20527;-62
2021/01/04 20:49:09;;;;;;;26.15;16.58;;;;;;;;;;10481836;27;20081;-62
2021/01/04 20:54:08;;;;;;;25.63;16.77;;;;;;;;;;10482046;27;20047;-62
2021/01/04 20:59:05;;;;;;;26.98;15.35;;;;;;;;;;10481734;27;20043;-62
2021/01/04 21:04:04;;;;;;;21.83;17.20;;;;;;;;;;10481948;27;20075;-61
2021/01/04 21:09:03;;;;;;;30.08;18.05;;;;;;;;;;10481455;27;20078;-62
2021/01/04 21:14:00;;;;;;;38.25;17.48;;;;;;;;;;10481392;27;20068;-62
2021/01/04 21:18:58;;;;;;;27.33;17.55;;;;;;;;;;10462430;27;20419;-63
2021/01/04 21:23:56;;;;;;;26.48;17.48;;;;;;;;;;10462841;27;20065;-61
2021/01/04 21:28:54;;;;;;;29.85;17.33;;;;;;;;;;10481183;27;20506;-62
2021/01/04 21:33:52;;;;;;;26.88;17.42;;;;;;;;;;10471071;27;20035;-63
2021/01/04 21:38:50;;;;;;;25.67;18.50;;;;;;;;;;10459784;27;20535;-62
2021/01/04 21:43:47;;;;;;;25.60;17.77;;;;;;;;;;10489138;27;20050;-60
2021/01/04 21:48:45;;;;;;;28.52;16.98;;;;;;;;;;10488102;27;20089;-60
2021/01/04 21:53:42;;;;;;;25.33;16.90;;;;;;;;;;10488253;27;20047;-62
2021/01/04 21:58:40;;;;;;;21.30;16.52;;;;;;;;;;10488526;27;20035;-62
2021/01/04 22:03:38;;;;;;;29.25;17.00;;;;;;;;;;10486448;27;20059;-62
2021/01/04 22:08:37;;;;;;;26.35;15.98;;;;;;;;;;10482741;27;20115;-63
2021/01/04 22:13:34;;;;;;;25.70;16.88;;;;;;;;;;10485370;27;20042;-63
2021/01/04 22:18:33;;;;;;;21.27;15.25;;;;;;;;;;10482737;27;20085;-62
2021/01/04 22:23:32;;;;;;;26.65;17.50;;;;;;;;;;10483536;27;20039;-62
2021/01/04 22:28:31;;;;;;;24.05;16.50;;;;;;;;;;10481405;27;20483;-62
2021/01/04 22:33:28;;;;;;;39.42;19.42;;;;;;;;;;10486666;27;20034;-61
2021/01/04 22:38:25;;;;;;;27.17;17.02;;;;;;;;;;10486324;27;20050;-63
2021/01/04 22:43:22;;;;;;;28.67;15.23;;;;;;;;;;10486634;27;20056;-62
2021/01/04 22:48:21;;;;;;;20.80;14.50;;;;;;;;;;10486452;27;20076;-62
2021/01/04 22:53:18;;;;;;;24.88;14.60;;;;;;;;;;10484162;27;20043;-62
2021/01/04 22:58:15;;;;;;;24.92;17.17;;;;;;;;;;10485646;27;20073;-61
2021/01/04 23:03:13;;;;;;;23.35;12.95;;;;;;;;;;10484795;27;20047;-63
2021/01/04 23:08:11;;;;;;;19.05;11.68;;;;;;;;;;10484489;27;20492;-63
2021/01/04 23:13:09;;;;;;;17.95;11.45;;;;;;;;;;10484994;27;20066;-62
2021/01/04 23:18:06;;;;;;;26.38;13.30;;;;;;;;;;10484474;27;20058;-63
2021/01/04 23:23:04;;;;;;;22.08;13.00;;;;;;;;;;10484573;27;20046;-62
2021/01/04 23:28:02;;;;;;;18.00;12.98;;;;;;;;;;10483630;27;20085;-63
2021/01/04 23:33:00;;;;;;;18.83;12.65;;;;;;;;;;10484452;27;20034;-61
2021/01/04 23:37:57;;;;;;;22.80;14.82;;;;;;;;;;10484261;27;20039;-62
2021/01/04 23:42:54;;;;;;;20.67;13.57;;;;;;;;;;10483298;27;20524;-61
2021/01/04 23:47:52;;;;;;;23.48;13.77;;;;;;;;;;10483798;27;20085;-62
2021/01/04 23:52:50;;;;;;;17.52;13.02;;;;;;;;;;10484062;27;20073;-63
2021/01/04 23:57:47;;;;;;;20.42;14.15;;;;;;;;;;10483221;27;20042;-62
